sensor_id;sensor_type;location;lat;lon;timestamp;P1;durP1;ratioP1;P2;durP2;ratioP2
18019;SDS011;9135;48.362;10.878;2022-11-02T00:00:55;5.77;;;3.63;;
18019;SDS011;9135;48.362;10.878;2022-11-02T00:03:21;3.83;;;3.10;;
18019;SDS011;9135;48.362;10.878;2022-11-02T00:05:48;4.73;;;2.53;;
18019;SDS011;9135;48.362;10.878;2022-11-02T00:08:14;3.40;;;2.87;;
18019;SDS011;9135;48.362;10.878;2022-11-02T00:10:40;4.30;;;2.80;;
18019;SDS011;9135;48.362;10.878;2022-11-02T00:13:06;2.63;;;2.13;;
18019;SDS011;9135;48.362;10.878;2022-11-02T00:15:32;2.67;;;2.47;;
18019;SDS011;9135;48.362;10.878;2022-11-02T00:18:00;3.57;;;2.67;;
18019;SDS011;9135;48.362;10.878;2022-11-02T00:20:28;3.43;;;2.47;;
18019;SDS011;9135;48.362;10.878;2022-11-02T00:22:55;3.13;;;2.93;;
18019;SDS011;9135;48.362;10.878;2022-11-02T00:25:23;3.13;;;2.10;;
18019;SDS011;9135;48.362;10.878;2022-11-02T00:27:50;3.00;;;2.70;;
18019;SDS011;9135;48.362;10.878;2022-11-02T00:30:16;4.37;;;3.17;;
18019;SDS011;9135;48.362;10.878;2022-11-02T00:32:42;2.83;;;2.03;;
18019;SDS011;9135;48.362;10.878;2022-11-02T00:35:08;1.63;;;1.43;;
18019;SDS011;9135;48.362;10.878;2022-11-02T00:37:34;3.10;;;2.90;;
18019;SDS011;9135;48.362;10.878;2022-11-02T00:40:01;2.17;;;1.97;;
18019;SDS011;9135;48.362;10.878;2022-11-02T00:42:27;4.27;;;2.17;;
18019;SDS011;9135;48.362;10.878;2022-11-02T00:44:53;2.93;;;2.53;;
18019;SDS011;9135;48.362;10.878;2022-11-02T00:47:19;1.93;;;1.80;;
18019;SDS011;9135;48.362;10.878;2022-11-02T00:49:45;1.67;;;1.53;;
18019;SDS011;9135;48.362;10.878;2022-11-02T00:52:11;5.80;;;2.00;;
18019;SDS011;9135;48.362;10.878;2022-11-02T00:54:37;2.13;;;2.03;;
18019;SDS011;9135;48.362;10.878;2022-11-02T00:57:03;6.30;;;3.53;;
18019;SDS011;9135;48.362;10.878;2022-11-02T00:59:29;4.67;;;2.47;;
18019;SDS011;9135;48.362;10.878;2022-11-02T01:01:55;2.33;;;2.10;;
18019;SDS011;9135;48.362;10.878;2022-11-02T01:04:21;4.47;;;2.47;;
18019;SDS011;9135;48.362;10.878;2022-11-02T01:06:47;3.83;;;1.53;;
18019;SDS011;9135;48.362;10.878;2022-11-02T01:09:14;2.97;;;1.83;;
18019;SDS011;9135;48.362;10.878;2022-11-02T01:11:40;2.20;;;2.07;;
18019;SDS011;9135;48.362;10.878;2022-11-02T01:14:06;9.43;;;1.20;;
18019;SDS011;9135;48.362;10.878;2022-11-02T01:16:33;1.80;;;1.70;;
18019;SDS011;9135;48.362;10.878;2022-11-02T01:18:59;2.47;;;1.90;;
18019;SDS011;9135;48.362;10.878;2022-11-02T01:21:25;2.00;;;1.90;;
18019;SDS011;9135;48.362;10.878;2022-11-02T01:23:51;3.17;;;1.97;;
18019;SDS011;9135;48.362;10.878;2022-11-02T01:26:17;1.93;;;1.83;;
18019;SDS011;9135;48.362;10.878;2022-11-02T01:28:44;2.27;;;2.13;;
18019;SDS011;9135;48.362;10.878;2022-11-02T01:31:10;2.30;;;2.10;;
18019;SDS011;9135;48.362;10.878;2022-11-02T01:33:36;4.67;;;2.17;;
18019;SDS011;9135;48.362;10.878;2022-11-02T01:36:04;3.57;;;2.27;;
18019;SDS011;9135;48.362;10.878;2022-11-02T01:38:31;2.93;;;2.73;;
18019;SDS011;9135;48.362;10.878;2022-11-02T01:40:57;2.00;;;1.90;;
18019;SDS011;9135;48.362;10.878;2022-11-02T01:43:24;1.87;;;1.70;;
18019;SDS011;9135;48.362;10.878;2022-11-02T01:45:52;2.20;;;2.00;;
18019;SDS011;9135;48.362;10.878;2022-11-02T01:48:20;2.63;;;2.43;;
18019;SDS011;9135;48.362;10.878;2022-11-02T01:50:50;1.80;;;1.70;;
18019;SDS011;9135;48.362;10.878;2022-11-02T01:53:17;1.93;;;1.80;;
18019;SDS011;9135;48.362;10.878;2022-11-02T01:55:43;4.03;;;1.87;;
18019;SDS011;9135;48.362;10.878;2022-11-02T01:58:09;1.37;;;1.27;;
18019;SDS011;9135;48.362;10.878;2022-11-02T02:00:36;1.83;;;1.73;;
18019;SDS011;9135;48.362;10.878;2022-11-02T02:03:06;2.47;;;2.10;;
18019;SDS011;9135;48.362;10.878;2022-11-02T02:05:33;2.13;;;1.83;;
18019;SDS011;9135;48.362;10.878;2022-11-02T02:07:59;1.13;;;1.13;;
18019;SDS011;9135;48.362;10.878;2022-11-02T02:10:26;1.63;;;1.53;;
18019;SDS011;9135;48.362;10.878;2022-11-02T02:12:52;1.53;;;1.53;;
18019;SDS011;9135;48.362;10.878;2022-11-02T02:15:19;8.00;;;1.93;;
18019;SDS011;9135;48.362;10.878;2022-11-02T02:17:49;1.17;;;1.17;;
18019;SDS011;9135;48.362;10.878;2022-11-02T02:30:45;1.00;;;1.00;;
18019;SDS011;9135;48.362;10.878;2022-11-02T02:33:20;2.00;;;1.77;;
18019;SDS011;9135;48.362;10.878;2022-11-02T02:35:59;4.23;;;1.50;;
18019;SDS011;9135;48.362;10.878;2022-11-02T02:38:32;1.43;;;1.40;;
18019;SDS011;9135;48.362;10.878;2022-11-02T02:41:02;1.50;;;1.40;;
18019;SDS011;9135;48.362;10.878;2022-11-02T02:43:33;1.67;;;1.57;;
18019;SDS011;9135;48.362;10.878;2022-11-02T02:46:04;1.33;;;1.30;;
18019;SDS011;9135;48.362;10.878;2022-11-02T02:48:31;5.97;;;2.17;;
18019;SDS011;9135;48.362;10.878;2022-11-02T02:51:00;4.80;;;2.60;;
18019;SDS011;9135;48.362;10.878;2022-11-02T02:53:32;3.17;;;1.80;;
18019;SDS011;9135;48.362;10.878;2022-11-02T02:56:00;2.97;;;2.53;;
18019;SDS011;9135;48.362;10.878;2022-11-02T02:58:28;1.40;;;1.30;;
18019;SDS011;9135;48.362;10.878;2022-11-02T03:00:55;1.93;;;1.67;;
18019;SDS011;9135;48.362;10.878;2022-11-02T03:03:23;2.13;;;1.70;;
18019;SDS011;9135;48.362;10.878;2022-11-02T03:08:38;2.00;;;1.80;;
18019;SDS011;9135;48.362;10.878;2022-11-02T03:11:12;1.37;;;1.37;;
18019;SDS011;9135;48.362;10.878;2022-11-02T03:13:41;1.93;;;1.87;;
18019;SDS011;9135;48.362;10.878;2022-11-02T03:18:47;1.50;;;1.40;;
18019;SDS011;9135;48.362;10.878;2022-11-02T03:21:19;1.63;;;1.53;;
18019;SDS011;9135;48.362;10.878;2022-11-02T03:23:59;1.27;;;1.27;;
18019;SDS011;9135;48.362;10.878;2022-11-02T03:27:08;1.30;;;1.30;;
18019;SDS011;9135;48.362;10.878;2022-11-02T03:29:20;1.23;;;1.03;;
18019;SDS011;9135;48.362;10.878;2022-11-02T03:31:59;2.10;;;1.90;;
18019;SDS011;9135;48.362;10.878;2022-11-02T03:37:00;1.60;;;1.50;;
18019;SDS011;9135;48.362;10.878;2022-11-02T03:39:47;2.33;;;2.13;;
18019;SDS011;9135;48.362;10.878;2022-11-02T03:42:15;2.07;;;1.87;;
18019;SDS011;9135;48.362;10.878;2022-11-02T03:44:42;2.23;;;1.60;;
18019;SDS011;9135;48.362;10.878;2022-11-02T03:47:10;1.73;;;1.40;;
18019;SDS011;9135;48.362;10.878;2022-11-02T03:49:38;1.40;;;1.37;;
18019;SDS011;9135;48.362;10.878;2022-11-02T03:52:04;2.00;;;1.90;;
18019;SDS011;9135;48.362;10.878;2022-11-02T03:54:44;1.40;;;1.40;;
18019;SDS011;9135;48.362;10.878;2022-11-02T03:57:13;2.17;;;2.00;;
18019;SDS011;9135;48.362;10.878;2022-11-02T03:59:42;0.90;;;0.90;;
18019;SDS011;9135;48.362;10.878;2022-11-02T04:02:08;1.20;;;1.10;;
18019;SDS011;9135;48.362;10.878;2022-11-02T04:04:49;1.53;;;1.40;;
18019;SDS011;9135;48.362;10.878;2022-11-02T04:07:19;1.83;;;1.30;;
18019;SDS011;9135;48.362;10.878;2022-11-02T04:09:48;1.73;;;1.63;;
18019;SDS011;9135;48.362;10.878;2022-11-02T04:12:14;1.50;;;1.40;;
18019;SDS011;9135;48.362;10.878;2022-11-02T04:14:59;1.33;;;1.23;;
18019;SDS011;9135;48.362;10.878;2022-11-02T04:17:25;1.70;;;1.63;;
18019;SDS011;9135;48.362;10.878;2022-11-02T04:20:10;1.27;;;1.27;;
18019;SDS011;9135;48.362;10.878;2022-11-02T04:22:36;1.60;;;1.57;;
18019;SDS011;9135;48.362;10.878;2022-11-02T04:25:21;1.40;;;1.30;;
18019;SDS011;9135;48.362;10.878;2022-11-02T04:27:50;1.47;;;1.37;;
18019;SDS011;9135;48.362;10.878;2022-11-02T04:30:18;1.03;;;1.03;;
18019;SDS011;9135;48.362;10.878;2022-11-02T04:32:45;1.60;;;1.50;;
18019;SDS011;9135;48.362;10.878;2022-11-02T04:35:30;1.50;;;1.40;;
18019;SDS011;9135;48.362;10.878;2022-11-02T04:37:56;1.43;;;1.43;;
18019;SDS011;9135;48.362;10.878;2022-11-02T04:40:41;3.97;;;1.50;;
18019;SDS011;9135;48.362;10.878;2022-11-02T04:43:07;1.00;;;1.00;;
18019;SDS011;9135;48.362;10.878;2022-11-02T04:45:33;1.43;;;1.30;;
18019;SDS011;9135;48.362;10.878;2022-11-02T04:48:00;1.13;;;1.07;;
18019;SDS011;9135;48.362;10.878;2022-11-02T04:50:26;1.90;;;1.80;;
18019;SDS011;9135;48.362;10.878;2022-11-02T04:52:56;1.43;;;1.37;;
18019;SDS011;9135;48.362;10.878;2022-11-02T04:55:22;4.00;;;2.80;;
18019;SDS011;9135;48.362;10.878;2022-11-02T04:57:48;1.57;;;1.47;;
18019;SDS011;9135;48.362;10.878;2022-11-02T05:00:14;1.23;;;1.17;;
18019;SDS011;9135;48.362;10.878;2022-11-02T05:02:40;1.87;;;1.77;;
18019;SDS011;9135;48.362;10.878;2022-11-02T05:05:06;2.63;;;1.77;;
18019;SDS011;9135;48.362;10.878;2022-11-02T05:07:33;2.07;;;1.90;;
18019;SDS011;9135;48.362;10.878;2022-11-02T05:09:59;2.30;;;2.10;;
18019;SDS011;9135;48.362;10.878;2022-11-02T05:12:25;5.03;;;2.17;;
18019;SDS011;9135;48.362;10.878;2022-11-02T05:14:51;2.57;;;2.17;;
18019;SDS011;9135;48.362;10.878;2022-11-02T05:17:17;1.93;;;1.67;;
18019;SDS011;9135;48.362;10.878;2022-11-02T05:19:43;1.97;;;1.67;;
18019;SDS011;9135;48.362;10.878;2022-11-02T05:22:09;1.63;;;1.53;;
18019;SDS011;9135;48.362;10.878;2022-11-02T05:24:35;1.07;;;1.07;;
18019;SDS011;9135;48.362;10.878;2022-11-02T05:27:01;1.87;;;1.53;;
18019;SDS011;9135;48.362;10.878;2022-11-02T05:29:27;1.40;;;1.30;;
18019;SDS011;9135;48.362;10.878;2022-11-02T05:31:53;3.90;;;1.90;;
18019;SDS011;9135;48.362;10.878;2022-11-02T05:34:19;10.50;;;2.33;;
18019;SDS011;9135;48.362;10.878;2022-11-02T05:36:46;2.00;;;1.60;;
18019;SDS011;9135;48.362;10.878;2022-11-02T05:39:12;1.50;;;1.47;;
18019;SDS011;9135;48.362;10.878;2022-11-02T05:41:38;2.43;;;1.90;;
18019;SDS011;9135;48.362;10.878;2022-11-02T05:44:04;2.67;;;2.47;;
18019;SDS011;9135;48.362;10.878;2022-11-02T05:46:30;1.80;;;1.70;;
18019;SDS011;9135;48.362;10.878;2022-11-02T05:48:57;2.03;;;1.93;;
18019;SDS011;9135;48.362;10.878;2022-11-02T05:51:23;3.33;;;2.23;;
18019;SDS011;9135;48.362;10.878;2022-11-02T05:53:49;1.50;;;1.40;;
18019;SDS011;9135;48.362;10.878;2022-11-02T05:56:15;2.13;;;1.93;;
18019;SDS011;9135;48.362;10.878;2022-11-02T05:58:41;2.33;;;2.20;;
18019;SDS011;9135;48.362;10.878;2022-11-02T06:01:07;2.30;;;2.17;;
18019;SDS011;9135;48.362;10.878;2022-11-02T06:03:34;3.23;;;2.60;;
18019;SDS011;9135;48.362;10.878;2022-11-02T06:06:01;2.43;;;2.27;;
18019;SDS011;9135;48.362;10.878;2022-11-02T06:08:30;4.20;;;2.17;;
18019;SDS011;9135;48.362;10.878;2022-11-02T06:10:56;2.07;;;1.53;;
18019;SDS011;9135;48.362;10.878;2022-11-02T06:13:22;7.50;;;3.00;;
18019;SDS011;9135;48.362;10.878;2022-11-02T06:15:48;1.87;;;1.80;;
18019;SDS011;9135;48.362;10.878;2022-11-02T06:18:14;2.43;;;2.27;;
18019;SDS011;9135;48.362;10.878;2022-11-02T06:20:40;6.13;;;2.53;;
18019;SDS011;9135;48.362;10.878;2022-11-02T06:23:06;1.87;;;1.77;;
18019;SDS011;9135;48.362;10.878;2022-11-02T06:25:32;4.90;;;1.80;;
18019;SDS011;9135;48.362;10.878;2022-11-02T06:27:58;1.50;;;1.40;;
18019;SDS011;9135;48.362;10.878;2022-11-02T06:30:24;2.30;;;2.10;;
18019;SDS011;9135;48.362;10.878;2022-11-02T06:32:52;2.63;;;1.83;;
18019;SDS011;9135;48.362;10.878;2022-11-02T06:35:19;2.00;;;1.80;;
18019;SDS011;9135;48.362;10.878;2022-11-02T06:37:45;4.10;;;3.03;;
18019;SDS011;9135;48.362;10.878;2022-11-02T06:40:12;1.73;;;1.63;;
18019;SDS011;9135;48.362;10.878;2022-11-02T06:42:38;2.93;;;2.13;;
18019;SDS011;9135;48.362;10.878;2022-11-02T06:45:04;2.97;;;2.73;;
18019;SDS011;9135;48.362;10.878;2022-11-02T06:47:31;2.07;;;1.97;;
18019;SDS011;9135;48.362;10.878;2022-11-02T06:49:58;2.43;;;2.23;;
18019;SDS011;9135;48.362;10.878;2022-11-02T06:52:27;2.47;;;2.27;;
18019;SDS011;9135;48.362;10.878;2022-11-02T06:54:54;3.03;;;2.70;;
18019;SDS011;9135;48.362;10.878;2022-11-02T06:57:20;2.33;;;2.13;;
18019;SDS011;9135;48.362;10.878;2022-11-02T06:59:47;2.87;;;2.60;;
18019;SDS011;9135;48.362;10.878;2022-11-02T07:02:13;2.20;;;2.00;;
18019;SDS011;9135;48.362;10.878;2022-11-02T07:04:39;2.87;;;2.67;;
18019;SDS011;9135;48.362;10.878;2022-11-02T07:07:05;3.63;;;2.83;;
18019;SDS011;9135;48.362;10.878;2022-11-02T07:09:31;2.90;;;2.70;;
18019;SDS011;9135;48.362;10.878;2022-11-02T07:11:57;5.60;;;2.80;;
18019;SDS011;9135;48.362;10.878;2022-11-02T07:14:23;1.70;;;1.60;;
18019;SDS011;9135;48.362;10.878;2022-11-02T07:16:49;3.43;;;2.13;;
18019;SDS011;9135;48.362;10.878;2022-11-02T07:19:15;2.40;;;2.13;;
18019;SDS011;9135;48.362;10.878;2022-11-02T07:21:41;4.57;;;1.97;;
18019;SDS011;9135;48.362;10.878;2022-11-02T07:24:07;2.30;;;1.67;;
18019;SDS011;9135;48.362;10.878;2022-11-02T07:26:33;3.37;;;3.07;;
18019;SDS011;9135;48.362;10.878;2022-11-02T07:28:59;1.97;;;1.87;;
18019;SDS011;9135;48.362;10.878;2022-11-02T07:31:25;2.20;;;2.00;;
18019;SDS011;9135;48.362;10.878;2022-11-02T07:33:52;2.63;;;2.43;;
18019;SDS011;9135;48.362;10.878;2022-11-02T07:36:17;2.67;;;2.53;;
18019;SDS011;9135;48.362;10.878;2022-11-02T07:38:44;3.90;;;2.17;;
18019;SDS011;9135;48.362;10.878;2022-11-02T07:41:10;2.67;;;2.47;;
18019;SDS011;9135;48.362;10.878;2022-11-02T07:43:36;1.97;;;1.83;;
18019;SDS011;9135;48.362;10.878;2022-11-02T07:46:02;2.53;;;1.87;;
18019;SDS011;9135;48.362;10.878;2022-11-02T07:48:28;2.57;;;2.37;;
18019;SDS011;9135;48.362;10.878;2022-11-02T07:50:57;2.60;;;2.10;;
18019;SDS011;9135;48.362;10.878;2022-11-02T07:53:24;2.43;;;2.20;;
18019;SDS011;9135;48.362;10.878;2022-11-02T07:55:50;1.83;;;1.73;;
18019;SDS011;9135;48.362;10.878;2022-11-02T07:58:16;1.97;;;1.77;;
18019;SDS011;9135;48.362;10.878;2022-11-02T08:00:42;4.13;;;2.20;;
18019;SDS011;9135;48.362;10.878;2022-11-02T08:03:08;4.30;;;2.03;;
18019;SDS011;9135;48.362;10.878;2022-11-02T08:05:36;2.80;;;1.63;;
18019;SDS011;9135;48.362;10.878;2022-11-02T08:08:06;2.33;;;2.13;;
18019;SDS011;9135;48.362;10.878;2022-11-02T08:10:33;1.53;;;1.53;;
18019;SDS011;9135;48.362;10.878;2022-11-02T08:12:59;1.73;;;1.63;;
18019;SDS011;9135;48.362;10.878;2022-11-02T08:15:25;2.37;;;1.40;;
18019;SDS011;9135;48.362;10.878;2022-11-02T08:17:58;2.37;;;1.93;;
18019;SDS011;9135;48.362;10.878;2022-11-02T08:20:25;1.20;;;1.20;;
18019;SDS011;9135;48.362;10.878;2022-11-02T08:22:51;1.30;;;1.30;;
18019;SDS011;9135;48.362;10.878;2022-11-02T08:25:17;1.17;;;1.07;;
18019;SDS011;9135;48.362;10.878;2022-11-02T08:27:43;1.80;;;1.60;;
18019;SDS011;9135;48.362;10.878;2022-11-02T08:30:09;1.70;;;1.60;;
18019;SDS011;9135;48.362;10.878;2022-11-02T08:32:35;1.30;;;1.30;;
18019;SDS011;9135;48.362;10.878;2022-11-02T08:35:01;11.73;;;2.13;;
18019;SDS011;9135;48.362;10.878;2022-11-02T08:37:28;3.60;;;2.10;;
18019;SDS011;9135;48.362;10.878;2022-11-02T08:39:54;0.80;;;0.80;;
18019;SDS011;9135;48.362;10.878;2022-11-02T08:42:20;1.23;;;1.23;;
18019;SDS011;9135;48.362;10.878;2022-11-02T08:44:46;2.87;;;1.43;;
18019;SDS011;9135;48.362;10.878;2022-11-02T08:47:12;1.53;;;1.50;;
18019;SDS011;9135;48.362;10.878;2022-11-02T08:49:39;3.47;;;2.20;;
18019;SDS011;9135;48.362;10.878;2022-11-02T08:52:06;3.77;;;2.40;;
18019;SDS011;9135;48.362;10.878;2022-11-02T08:54:32;1.25;;;1.15;;
18019;SDS011;9135;48.362;10.878;2022-11-02T08:56:58;3.20;;;2.23;;
18019;SDS011;9135;48.362;10.878;2022-11-02T08:59:24;1.60;;;1.50;;
18019;SDS011;9135;48.362;10.878;2022-11-02T09:01:50;1.73;;;1.63;;
18019;SDS011;9135;48.362;10.878;2022-11-02T09:04:16;3.13;;;2.57;;
18019;SDS011;9135;48.362;10.878;2022-11-02T09:06:42;1.67;;;1.57;;
18019;SDS011;9135;48.362;10.878;2022-11-02T09:09:08;0.90;;;0.90;;
18019;SDS011;9135;48.362;10.878;2022-11-02T09:11:34;2.42;;;1.02;;
18019;SDS011;9135;48.362;10.878;2022-11-02T09:14:01;1.10;;;1.10;;
18019;SDS011;9135;48.362;10.878;2022-11-02T09:16:27;1.13;;;1.13;;
18019;SDS011;9135;48.362;10.878;2022-11-02T09:18:53;1.05;;;1.05;;
18019;SDS011;9135;48.362;10.878;2022-11-02T09:21:19;2.15;;;1.55;;
18019;SDS011;9135;48.362;10.878;2022-11-02T09:23:45;1.20;;;1.20;;
18019;SDS011;9135;48.362;10.878;2022-11-02T09:26:12;1.15;;;1.15;;
18019;SDS011;9135;48.362;10.878;2022-11-02T09:28:38;1.40;;;1.33;;
18019;SDS011;9135;48.362;10.878;2022-11-02T09:31:04;1.20;;;1.20;;
18019;SDS011;9135;48.362;10.878;2022-11-02T09:33:30;1.33;;;1.00;;
18019;SDS011;9135;48.362;10.878;2022-11-02T09:36:00;2.08;;;1.50;;
18019;SDS011;9135;48.362;10.878;2022-11-02T09:38:26;2.15;;;1.08;;
18019;SDS011;9135;48.362;10.878;2022-11-02T09:46:07;2.00;;;1.50;;
18019;SDS011;9135;48.362;10.878;2022-11-02T09:48:44;1.25;;;1.25;;
18019;SDS011;9135;48.362;10.878;2022-11-02T09:51:16;5.22;;;1.75;;
18019;SDS011;9135;48.362;10.878;2022-11-02T09:56:13;3.08;;;1.42;;
18019;SDS011;9135;48.362;10.878;2022-11-02T09:58:41;2.55;;;1.25;;
18019;SDS011;9135;48.362;10.878;2022-11-02T10:01:10;1.92;;;1.77;;
18019;SDS011;9135;48.362;10.878;2022-11-02T10:03:42;1.00;;;1.00;;
18019;SDS011;9135;48.362;10.878;2022-11-02T10:06:12;0.63;;;0.63;;
18019;SDS011;9135;48.362;10.878;2022-11-02T10:13:49;3.85;;;1.70;;
18019;SDS011;9135;48.362;10.878;2022-11-02T10:16:22;2.13;;;1.15;;
18019;SDS011;9135;48.362;10.878;2022-11-02T10:18:51;3.10;;;1.63;;
18019;SDS011;9135;48.362;10.878;2022-11-02T10:24:46;1.15;;;1.10;;
18019;SDS011;9135;48.362;10.878;2022-11-02T10:30:32;2.13;;;0.73;;
18019;SDS011;9135;48.362;10.878;2022-11-02T10:32:59;1.23;;;1.20;;
18019;SDS011;9135;48.362;10.878;2022-11-02T10:40:48;0.60;;;0.60;;
18019;SDS011;9135;48.362;10.878;2022-11-02T10:48:54;0.60;;;0.60;;
18019;SDS011;9135;48.362;10.878;2022-11-02T10:51:25;0.88;;;0.88;;
18019;SDS011;9135;48.362;10.878;2022-11-02T10:53:51;0.88;;;0.88;;
18019;SDS011;9135;48.362;10.878;2022-11-02T10:56:19;1.73;;;1.10;;
18019;SDS011;9135;48.362;10.878;2022-11-02T10:58:50;1.10;;;0.90;;
18019;SDS011;9135;48.362;10.878;2022-11-02T11:01:17;1.02;;;1.02;;
18019;SDS011;9135;48.362;10.878;2022-11-02T11:06:18;1.20;;;1.10;;
18019;SDS011;9135;48.362;10.878;2022-11-02T11:08:45;1.00;;;1.00;;
18019;SDS011;9135;48.362;10.878;2022-11-02T11:11:23;1.27;;;0.90;;
18019;SDS011;9135;48.362;10.878;2022-11-02T11:16:32;0.80;;;0.80;;
18019;SDS011;9135;48.362;10.878;2022-11-02T11:19:00;0.50;;;0.50;;
18019;SDS011;9135;48.362;10.878;2022-11-02T11:21:35;0.65;;;0.65;;
18019;SDS011;9135;48.362;10.878;2022-11-02T11:24:18;0.82;;;0.82;;
18019;SDS011;9135;48.362;10.878;2022-11-02T11:26:45;0.75;;;0.63;;
18019;SDS011;9135;48.362;10.878;2022-11-02T11:29:20;0.57;;;0.57;;
18019;SDS011;9135;48.362;10.878;2022-11-02T11:31:47;0.80;;;0.80;;
18019;SDS011;9135;48.362;10.878;2022-11-02T11:34:23;1.55;;;1.25;;
18019;SDS011;9135;48.362;10.878;2022-11-02T11:36:50;0.70;;;0.70;;
18019;SDS011;9135;48.362;10.878;2022-11-02T11:39:26;0.80;;;0.80;;
18019;SDS011;9135;48.362;10.878;2022-11-02T11:41:53;0.50;;;0.50;;
18019;SDS011;9135;48.362;10.878;2022-11-02T11:44:19;1.20;;;1.20;;
18019;SDS011;9135;48.362;10.878;2022-11-02T11:46:50;0.55;;;0.55;;
18019;SDS011;9135;48.362;10.878;2022-11-02T11:49:20;3.13;;;0.80;;
18019;SDS011;9135;48.362;10.878;2022-11-02T11:51:48;0.60;;;0.60;;
18019;SDS011;9135;48.362;10.878;2022-11-02T11:54:25;0.70;;;0.70;;
18019;SDS011;9135;48.362;10.878;2022-11-02T11:56:52;1.10;;;0.80;;
18019;SDS011;9135;48.362;10.878;2022-11-02T11:59:19;0.90;;;0.90;;
18019;SDS011;9135;48.362;10.878;2022-11-02T12:01:46;0.60;;;0.60;;
18019;SDS011;9135;48.362;10.878;2022-11-02T12:04:12;0.85;;;0.85;;
18019;SDS011;9135;48.362;10.878;2022-11-02T12:12:12;1.65;;;1.55;;
18019;SDS011;9135;48.362;10.878;2022-11-02T12:25:02;0.63;;;0.63;;
18019;SDS011;9135;48.362;10.878;2022-11-02T12:27:36;2.45;;;1.42;;
18019;SDS011;9135;48.362;10.878;2022-11-02T12:37:53;0.60;;;0.60;;
18019;SDS011;9135;48.362;10.878;2022-11-02T12:41:06;3.60;;;1.13;;
18019;SDS011;9135;48.362;10.878;2022-11-02T12:51:11;0.60;;;0.60;;
18019;SDS011;9135;48.362;10.878;2022-11-02T12:53:56;1.52;;;0.80;;
18019;SDS011;9135;48.362;10.878;2022-11-02T12:56:28;2.50;;;1.55;;
18019;SDS011;9135;48.362;10.878;2022-11-02T12:58:56;0.80;;;0.80;;
18019;SDS011;9135;48.362;10.878;2022-11-02T13:01:27;2.40;;;0.73;;
18019;SDS011;9135;48.362;10.878;2022-11-02T13:06:24;4.25;;;2.15;;
18019;SDS011;9135;48.362;10.878;2022-11-02T13:08:52;0.80;;;0.80;;
18019;SDS011;9135;48.362;10.878;2022-11-02T13:11:21;0.68;;;0.68;;
18019;SDS011;9135;48.362;10.878;2022-11-02T13:13:50;1.77;;;1.35;;
18019;SDS011;9135;48.362;10.878;2022-11-02T13:16:19;1.00;;;1.00;;
18019;SDS011;9135;48.362;10.878;2022-11-02T13:18:49;0.70;;;0.70;;
18019;SDS011;9135;48.362;10.878;2022-11-02T13:21:27;1.50;;;1.05;;
18019;SDS011;9135;48.362;10.878;2022-11-02T13:23:56;1.13;;;1.13;;
18019;SDS011;9135;48.362;10.878;2022-11-02T13:26:25;1.27;;;0.70;;
18019;SDS011;9135;48.362;10.878;2022-11-02T13:28:56;1.05;;;1.05;;
18019;SDS011;9135;48.362;10.878;2022-11-02T13:33:52;1.00;;;1.00;;
18019;SDS011;9135;48.362;10.878;2022-11-02T13:36:18;0.50;;;0.50;;
18019;SDS011;9135;48.362;10.878;2022-11-02T13:39:28;2.50;;;0.90;;
18019;SDS011;9135;48.362;10.878;2022-11-02T13:49:25;2.70;;;1.38;;
18019;SDS011;9135;48.362;10.878;2022-11-02T13:51:56;0.55;;;0.55;;
18019;SDS011;9135;48.362;10.878;2022-11-02T13:56:50;4.57;;;0.75;;
18019;SDS011;9135;48.362;10.878;2022-11-02T13:59:21;2.58;;;0.55;;
18019;SDS011;9135;48.362;10.878;2022-11-02T14:01:48;0.50;;;0.50;;
18019;SDS011;9135;48.362;10.878;2022-11-02T14:04:16;0.80;;;0.80;;
18019;SDS011;9135;48.362;10.878;2022-11-02T14:09:20;0.73;;;0.73;;
18019;SDS011;9135;48.362;10.878;2022-11-02T14:11:47;1.77;;;0.68;;
18019;SDS011;9135;48.362;10.878;2022-11-02T14:14:20;1.65;;;0.60;;
18019;SDS011;9135;48.362;10.878;2022-11-02T14:29:47;0.68;;;0.68;;
18019;SDS011;9135;48.362;10.878;2022-11-02T14:37:18;1.17;;;1.00;;
18019;SDS011;9135;48.362;10.878;2022-11-02T14:47:29;1.45;;;1.02;;
18019;SDS011;9135;48.362;10.878;2022-11-02T14:50:19;1.20;;;1.20;;
18019;SDS011;9135;48.362;10.878;2022-11-02T14:52:56;1.00;;;1.00;;
18019;SDS011;9135;48.362;10.878;2022-11-02T14:55:27;5.18;;;1.50;;
18019;SDS011;9135;48.362;10.878;2022-11-02T14:57:55;0.70;;;0.70;;
18019;SDS011;9135;48.362;10.878;2022-11-02T15:00:26;1.02;;;1.02;;
18019;SDS011;9135;48.362;10.878;2022-11-02T15:02:54;0.68;;;0.68;;
18019;SDS011;9135;48.362;10.878;2022-11-02T15:05:33;5.13;;;1.50;;
18019;SDS011;9135;48.362;10.878;2022-11-02T15:08:01;1.33;;;0.82;;
18019;SDS011;9135;48.362;10.878;2022-11-02T15:15:40;0.82;;;0.80;;
18019;SDS011;9135;48.362;10.878;2022-11-02T15:18:23;4.95;;;0.70;;
18019;SDS011;9135;48.362;10.878;2022-11-02T15:23:42;0.65;;;0.65;;
18019;SDS011;9135;48.362;10.878;2022-11-02T15:26:17;0.70;;;0.70;;
18019;SDS011;9135;48.362;10.878;2022-11-02T15:28:44;0.80;;;0.80;;
18019;SDS011;9135;48.362;10.878;2022-11-02T15:31:14;0.73;;;0.73;;
18019;SDS011;9135;48.362;10.878;2022-11-02T15:33:42;0.85;;;0.85;;
18019;SDS011;9135;48.362;10.878;2022-11-02T15:36:14;0.63;;;0.63;;
18019;SDS011;9135;48.362;10.878;2022-11-02T15:38:45;2.88;;;1.25;;
18019;SDS011;9135;48.362;10.878;2022-11-02T16:02:27;1.15;;;1.15;;
18019;SDS011;9135;48.362;10.878;2022-11-02T16:04:56;1.13;;;1.13;;
18019;SDS011;9135;48.362;10.878;2022-11-02T16:07:23;1.38;;;1.27;;
18019;SDS011;9135;48.362;10.878;2022-11-02T16:09:49;4.68;;;1.25;;
18019;SDS011;9135;48.362;10.878;2022-11-02T16:12:16;2.78;;;1.00;;
18019;SDS011;9135;48.362;10.878;2022-11-02T16:14:43;1.27;;;1.23;;
18019;SDS011;9135;48.362;10.878;2022-11-02T16:17:46;1.10;;;1.10;;
18019;SDS011;9135;48.362;10.878;2022-11-02T16:20:09;0.90;;;0.90;;
18019;SDS011;9135;48.362;10.878;2022-11-02T16:22:36;1.10;;;1.10;;
18019;SDS011;9135;48.362;10.878;2022-11-02T16:25:10;2.23;;;2.03;;
18019;SDS011;9135;48.362;10.878;2022-11-02T16:27:37;1.13;;;1.13;;
18019;SDS011;9135;48.362;10.878;2022-11-02T16:30:03;1.33;;;1.23;;
18019;SDS011;9135;48.362;10.878;2022-11-02T16:32:29;2.70;;;1.40;;
18019;SDS011;9135;48.362;10.878;2022-11-02T16:34:56;1.37;;;1.37;;
18019;SDS011;9135;48.362;10.878;2022-11-02T16:37:22;1.65;;;1.35;;
18019;SDS011;9135;48.362;10.878;2022-11-02T16:39:49;2.53;;;1.73;;
18019;SDS011;9135;48.362;10.878;2022-11-02T16:42:16;1.57;;;1.47;;
18019;SDS011;9135;48.362;10.878;2022-11-02T16:44:52;1.17;;;1.07;;
18019;SDS011;9135;48.362;10.878;2022-11-02T16:47:20;1.83;;;1.00;;
18019;SDS011;9135;48.362;10.878;2022-11-02T16:52:22;0.80;;;0.80;;
18019;SDS011;9135;48.362;10.878;2022-11-02T16:54:50;12.70;;;1.93;;
18019;SDS011;9135;48.362;10.878;2022-11-02T16:57:20;2.77;;;2.57;;
18019;SDS011;9135;48.362;10.878;2022-11-02T16:59:52;2.80;;;2.60;;
18019;SDS011;9135;48.362;10.878;2022-11-02T17:02:21;2.97;;;1.80;;
18019;SDS011;9135;48.362;10.878;2022-11-02T17:04:48;1.47;;;1.47;;
18019;SDS011;9135;48.362;10.878;2022-11-02T17:07:26;1.70;;;1.50;;
18019;SDS011;9135;48.362;10.878;2022-11-02T17:09:54;2.43;;;2.07;;
18019;SDS011;9135;48.362;10.878;2022-11-02T17:12:34;1.53;;;1.43;;
18019;SDS011;9135;48.362;10.878;2022-11-02T17:15:02;1.17;;;1.17;;
18019;SDS011;9135;48.362;10.878;2022-11-02T17:17:37;1.77;;;1.70;;
18019;SDS011;9135;48.362;10.878;2022-11-02T17:22:37;1.60;;;1.50;;
18019;SDS011;9135;48.362;10.878;2022-11-02T17:25:18;3.50;;;2.60;;
18019;SDS011;9135;48.362;10.878;2022-11-02T17:27:44;4.13;;;2.43;;
18019;SDS011;9135;48.362;10.878;2022-11-02T17:30:44;3.03;;;2.03;;
18019;SDS011;9135;48.362;10.878;2022-11-02T17:35:44;2.07;;;1.97;;
18019;SDS011;9135;48.362;10.878;2022-11-02T17:38:11;1.83;;;1.73;;
18019;SDS011;9135;48.362;10.878;2022-11-02T17:40:37;2.23;;;2.13;;
18019;SDS011;9135;48.362;10.878;2022-11-02T17:43:03;2.43;;;2.20;;